x

Frying Pan Shoals, Nc Buoy (41013) Wave Buoy

4:40 - Sun 22nd Jan 2017 All times are EST. -5 hours from GMT.

  • Sig Wave height 5.6ft
  • Swell Direction
  • Average Period 5s
  • Wind
    20mph, 22mph gusts
  • Sea Temp 71°f
  • Aire Temp 67°f
  • Sea Pressure 1005mb
  • Frying Pan Shoals, Nc Buoy
  • Frying Pan Shoals, Nc Buoy

More Historic Weather Station data

Upgrade to MSW Pro to gain access to the past 30 days of data for over 8000 Wavebouys and Weather Stations around the globe.

Join Pro

Comparision Forecast

View Surf forecast
   
dom 01/22 4:40 5.5ft  -  5s 20 22 mph 1005mb 71f 67f
4:30  -   -   -  20 25 mph 1005mb 71f 68f
4:20  -   -   -  20 27 mph 1005mb 71f 68f
4:10  -   -   -  20 25 mph 1005mb 71f 69f
4:00  -   -   -  20 27 mph 1005mb 71f 69f
3:50 5.5ft 6s 5s 20 25 mph 1005mb 70f 69f
3:40  -   -   -  20 25 mph 1004.8mb 70f 69f
3:30  -   -   -  20 27 mph 1004.6mb 70f 69f
3:20  -   -   -  22 29 mph 1005mb 70f 69f
3:10  -   -   -  25 31 mph 1005.1mb 70f 69f
3:00  -   -   -  25 31 mph 1005.5mb 70f 70f
2:50 5.5ft 6s 5s 27 34 mph 1005.3mb 70f 70f
2:40 5.5ft  -  5s 27 34 mph 1005.3mb 70f 70f
2:30  -   -   -  25 29 mph 1005.1mb 70f 70f
2:20  -   -   -  25 29 mph 1005mb 70f 71f
2:10  -   -   -  25 31 mph 1004.8mb 70f 71f
2:00  -   -   -  25 29 mph 1005mb 70f 71f
1:50 4.5ft 6s 4s 25 31 mph 1004.9mb 70f 71f
1:40 4.5ft  -  4s 25 29 mph 1005mb 70f 71f
1:30  -   -   -  22 29 mph 1005.1mb 70f 71f
1:20  -   -   -  25 31 mph 1005mb 70f 71f
1:10  -   -   -  25 31 mph 1005mb 70f 71f
1:00  -   -   -  25 31 mph 1004.9mb 70f 71f
12:50 4.5ft 6s 4s 22 29 mph 1005.1mb 70f 71f
12:40 4.5ft  -  4s 22 29 mph 1005mb 70f 71f
12:30  -   -   -  22 27 mph 1004.9mb 70f 71f
12:20  -   -   -  22 27 mph 1004.9mb 70f 71f
12:10  -   -   -  20 25 mph 1004.8mb 70f 71f
12:00  -   -   -  20 27 mph 1004.6mb 70f 70f
sáb 01/21 11:50 4.5ft 5s 4s 20 25 mph 1004.5mb 70f 70f
11:40 4.5ft  -  4s 18 22 mph 1004.5mb 70f 70f
11:30  -   -   -  18 20 mph 1004.8mb 70f 70f
11:20  -   -   -  20 25 mph 1004.8mb 70f 70f
11:10  -   -   -  22 27 mph 1005mb 70f 70f
11:00  -   -   -  22 25 mph 1005mb 70f 70f
10:50 4.5ft 5s 4s 22 29 mph 1004.8mb 70f 70f
10:40 4.5ft  -  4s 25 31 mph 1005.6mb 70f 70f
10:30  -   -   -  27 31 mph 1006.4mb 70f 70f
10:20  -   -   -  25 31 mph 1006.6mb 70f 70f
10:10  -   -   -  20 22 mph 1006.8mb 70f 70f
10:00  -   -   -  18 22 mph 1006.5mb 70f 70f
9:50 4ft 5s 4s 20 25 mph 1006.5mb 70f 69f
9:40  -   -   -  22 27 mph 1006.5mb 70f 69f
9:30  -   -   -  22 31 mph 1006.9mb 70f 68f
9:20  -   -   -  27 34 mph 1007mb 70f 68f
9:10  -   -   -  25 31 mph 1007mb 70f 69f
9:00  -   -   -  22 27 mph 1006.9mb 70f 68f
8:50 3ft 11s 4s 25 31 mph 1006.8mb 70f 69f
8:40 3ft  -  4s 27 34 mph 1006.9mb 70f 69f
8:30  -   -   -  27 36 mph 1006.5mb - 69f
8:20  -   -   -  27 38 mph 1006.6mb 70f 69f
8:10  -   -   -  13 25 mph 1007mb 70f 71f
8:00  -   -   -  4 7 mph 1007.3mb 70f 71f
7:50 2.5ft 11s 5s 7 9 mph 1007.3mb 70f 72f
7:40  -   -   -  7 9 mph 1007.3mb 70f 72f
7:30  -   -   -  9
mph
1007.6mb 70f 72f
7:20  -   -   -  9 11 mph 1007.6mb 70f 71f
7:10  -   -   -  9 11 mph 1007.5mb 70f 71f
7:00  -   -   -  9 13 mph 1007.6mb 70f 71f
6:50 2.5ft 11s 5s 11 13 mph 1007.8mb 70f 71f
6:40  -   -   -  11 13 mph 1007.9mb 70f 71f
6:30  -   -   -  11 13 mph 1008mb 70f 71f
6:20  -   -   -  11 13 mph 1008mb 71f 71f
6:10  -   -   -  11
mph
1008mb 71f 71f
6:00  -   -   -  11 13 mph 1007.8mb 70f 71f
5:50 2.5ft 10s 5s 13 16 mph 1007.9mb 71f 71f
5:40  -   -   -  11 13 mph 1007.6mb 71f 71f
5:30  -   -   -  11 13 mph 1007.6mb 71f 71f
5:20  -   -   -  11 16 mph 1007.8mb 71f 71f
5:10  -   -   -  13 16 mph 1007.8mb 71f 71f
5:00  -   -   -  11 16 mph 1007.9mb 71f 71f
4:50 2.5ft 11s 4s 11 13 mph 1008mb 71f 71f
4:40 2.5ft  -  4s 11 13 mph 1007.8mb 71f 71f
4:30  -   -   -  11 13 mph 1007.9mb 71f 71f
4:20  -   -   -  11 13 mph 1007.9mb 71f 71f
4:10  -   -   -  11 13 mph 1008mb 71f 71f
4:00  -   -   -  11 13 mph 1008.3mb 71f 71f
3:50 2.5ft 11s 4s 11 16 mph 1008.4mb 71f 71f
3:40 2.5ft  -  4s 13 16 mph 1008.4mb 71f 71f
3:30  -   -   -  16 18 mph 1008.3mb - 71f
3:20  -   -   -  16 18 mph 1008.3mb 71f 71f
3:10  -   -   -  16 18 mph 1008.6mb 71f 71f
3:00  -   -   -  16 18 mph 1008.8mb 71f 71f
2:50 2.5ft 11s 4s 13 18 mph 1008.9mb 71f 71f
2:40 2.5ft  -  4s 13 16 mph 1008.9mb 71f 70f
2:30  -   -   -  13 18 mph 1009mb 71f 70f
2:20  -   -   -  16 18 mph 1009mb 71f 70f
2:10  -   -   -  16 18 mph 1009.3mb 71f 69f
2:00  -   -   -  16 18 mph 1009.5mb 71f 69f
1:50 2.5ft 9s 4s 16 18 mph 1009.9mb 71f 69f
1:40 2.5ft  -  4s 16 18 mph 1009.9mb 71f 69f
1:30  -   -   -  16 18 mph 1010mb 71f 69f
1:20  -   -   -  16 20 mph 1009.8mb 71f 69f
1:10  -   -   -  16 20 mph 1009.8mb 70f 69f
1:00  -   -   -  16 18 mph 1010mb 70f 69f
12:50 2.5ft 11s 5s 16 18 mph 1010.5mb 70f 69f
12:40 2.5ft  -  5s 16 18 mph 1010.8mb 70f 68f
12:30  -   -   -  13 16 mph 1011mb 70f 69f
12:20  -   -   -  13 18 mph 1011.4mb 70f 68f
12:10  -   -   -  13 18 mph 1011.5mb 70f 68f
12:00  -   -   -  11 13 mph 1012mb 70f 68f
11:50 2.5ft 11s 5s 11 13 mph 1012.1mb 70f 68f
11:40  -   -   -  9 13 mph 1012.5mb 70f 67f
11:30  -   -   -  7 9 mph 1013mb 70f 67f
11:20  -   -   -  7 11 mph 1013mb 70f 68f
11:10  -   -   -  4 11 mph 1013mb 70f 67f
11:00  -   -   -  4 7 mph 1013.5mb 70f 67f
10:50 2.5ft 11s 5s 2 7 mph 1013.5mb 70f 66f
10:40 2.5ft  -  5s 9 11 mph 1013.3mb 70f 66f
10:30  -   -   -  7 9 mph 1013.5mb 70f 66f
10:20  -   -   -  4 7 mph 1013.5mb 70f 67f
10:10  -   -   -  4 11 mph 1013.8mb 70f 67f
10:00  -   -   -  7 9 mph 1013.1mb 70f 68f
9:50 2.5ft 12s 5s 9 13 mph 1013mb 70f 67f
9:40 2.5ft  -  5s 11 13 mph 1013mb 70f 67f
9:30  -   -   -  7 11 mph 1013mb 70f 67f
9:20  -   -   -  7 9 mph 1013mb 70f 68f
9:10  -   -   -  7 9 mph 1013mb 70f 68f
9:00  -   -   -  7 9 mph 1013mb 69f 68f
8:50 2.5ft 11s 5s 7 11 mph 1013mb 69f 68f
8:40  -   -   -  7 9 mph 1013mb 69f 68f
8:30  -   -   -  7 9 mph 1012.8mb 69f 68f
8:20  -   -   -  7 9 mph 1012.9mb 69f 68f
8:10  -   -   -  7 9 mph 1012.8mb 69f 68f
8:00  -   -   -  7 9 mph 1012.5mb 69f 68f
7:50 2.5ft 12s 5s 7 9 mph 1012.6mb 69f 68f
7:40 2.5ft  -  5s 7 9 mph 1012.6mb 70f 68f
7:30  -   -   -  7
mph
1012.5mb - -
7:20  -   -   -  4 7 mph 1012.5mb 70f 69f
7:10  -   -   -  2 4 mph 1012.5mb 70f 69f
7:00  -   -   -  2 4 mph 1012.5mb 70f 70f
6:50 2.5ft 10s 5s 2
mph
1012.4mb 70f 70f
6:40 2.5ft  -  5s 2
mph
1012.1mb 70f 70f
6:30  -   -   -  2
mph
1012.3mb 70f 70f
6:20  -   -   -  2 4 mph 1012.1mb 70f 70f
6:10  -   -   -  2 4 mph 1012.1mb 70f 70f
6:00  -   -   -  4 7 mph 1012.3mb 70f 70f
5:50 2.5ft 12s 5s 4 7 mph 1012.4mb 70f 70f
5:40  -   -   -  7 9 mph 1012.1mb 70f 70f
5:30  -   -   -  7 9 mph 1012mb 70f 70f
5:20  -   -   -  9 11 mph 1012mb 70f 70f
5:10  -   -   -  11 13 mph 1012.3mb 70f 70f
5:00  -   -   -  9 13 mph 1012.4mb 70f 70f
4:50 3ft 12s 5s 9 11 mph 1012.4mb 70f 70f
4:40  -   -   -  9 11 mph 1012.4mb 71f 70f
4:30  -   -   -  9 11 mph 1012.5mb 71f 70f
4:20  -   -   -  7 9 mph 1012.5mb 71f 70f
4:10  -   -   -  7 9 mph 1012.4mb 71f 69f
4:00  -   -   -  7 9 mph 1012.4mb 71f 70f
3:50 3ft 6s 5s 9 11 mph 1012.5mb 71f 69f
3:40  -   -   -  9 11 mph 1012.6mb 71f 70f
3:30  -   -   -  11 13 mph 1012.6mb 71f 70f
3:20  -   -   -  11 13 mph 1012.5mb 71f 70f
3:10  -   -   -  11 16 mph 1012.6mb 71f 70f
3:00  -   -   -  13 18 mph 1012.8mb 71f 70f
2:50 3ft 14s 4s 13 18 mph 1012.9mb 71f 70f
2:40 3ft  -  4s 11 13 mph 1012.9mb 71f 70f
2:30  -   -   -  11 13 mph 1012.8mb 71f 70f
2:20  -   -   -  11 13 mph 1012.8mb 71f 70f
2:10  -   -   -  11 16 mph 1012.8mb 71f 70f
2:00  -   -   -  13 16 mph 1012.6mb 71f 70f
1:50 3.5ft 5s 4s 16 18 mph 1012.8mb 71f 70f
1:40 3.5ft  -  4s 13 16 mph 1012.6mb 71f 70f
1:30  -   -   -  13 16 mph 1012.6mb 71f 70f
1:20  -   -   -  13 16 mph 1012.5mb 71f 70f
1:10  -   -   -  13 16 mph 1012.5mb 71f 70f
1:00  -   -   -  11 16 mph 1012.4mb 71f 70f
12:50 3.5ft 5s 4s 13 16 mph 1012.3mb 71f 69f
12:40 3.5ft  -  4s 13 18 mph 1012.5mb 71f 69f
12:30  -   -   -  16 18 mph 1012.6mb 71f 69f
12:20  -   -   -  16 20 mph 1012.5mb 71f 69f
12:10  -   -   -  16 18 mph 1012.5mb 71f 69f
12:00  -   -   -  16 18 mph 1012.6mb 71f 69f
vie 01/20 11:50 3.5ft 5s 4s 16 18 mph 1012.8mb 71f 69f
11:40 3.5ft  -  4s 16 18 mph 1013mb 71f 70f
11:30  -   -   -  16 18 mph 1013mb 71f 69f
11:20  -   -   -  16 20 mph 1013.1mb 71f 69f
11:10  -   -   -  18 20 mph 1013.3mb 71f 69f
11:00  -   -   -  16 20 mph 1013.1mb - 69f
10:50 3.5ft 5s 4s 13 18 mph 1013mb 71f 69f
10:40 3.5ft  -  4s 13 18 mph 1013mb 71f 69f
10:30  -   -   -  16 18 mph 1013mb 71f 69f
10:20  -   -   -  16 18 mph 1012.9mb 71f 69f
10:10  -   -   -  16 20 mph 1012.8mb 71f 69f
10:00  -   -   -  13 18 mph 1012.6mb 71f 69f
9:50 3.5ft 13s 4s 16 18 mph 1012.5mb 71f 69f
9:40  -   -   -  13 18 mph 1012.4mb 71f 69f
9:30  -   -   -  16 18 mph 1012.4mb 71f 70f
9:20  -   -   -  16 20 mph 1012.4mb 71f 70f
9:10  -   -   -  16 20 mph 1012.3mb 71f 69f
9:00  -   -   -  16 20 mph 1012.3mb 71f 70f
8:50 3.5ft 5s 4s 16 22 mph 1012.1mb 71f 69f
8:40  -   -   -  16 18 mph 1012mb 71f 69f
8:30 3.5ft  -  4s 16 18 mph 1012mb 71f 69f
8:20  -   -   -  18 20 mph 1012mb 71f 69f
8:10  -   -   -  16 20 mph 1012mb 71f 69f
8:00  -   -   -  16 20 mph 1011.9mb - -
7:50 3.5ft 5s 4s 16 18 mph 1011.6mb 71f 69f
7:40  -   -   -  16 18 mph 1011.5mb 71f 69f
7:30  -   -   -  16 20 mph 1011.6mb 71f 69f
7:20  -   -   -  16 20 mph 1011.5mb 71f 69f
7:10  -   -   -  16 20 mph 1011.5mb 71f 69f
7:00  -   -   -  16 20 mph 1011.5mb 71f 69f
6:50 3.5ft 4s 4s 18 20 mph 1011.5mb 71f 69f
6:40  -   -   -  18 20 mph 1011.4mb 71f 69f
6:30  -   -   -  18 20 mph 1011.1mb 71f 70f
6:20  -   -   -  18 22 mph 1011mb 71f 70f
6:10  -   -   -  18 22 mph 1011mb 71f 70f
6:00  -   -   -  18 20 mph 1010.6mb 71f 70f
5:50 3ft 12s 4s 18 22 mph 1010.5mb 71f 70f
5:40  -   -   -  18 22 mph 1010.5mb 71f 70f
5:30  -   -   -  20 22 mph 1010.6mb 71f 70f
5:20  -   -   -  20 25 mph 1010.5mb 71f 71f
5:10  -   -   -  20 25 mph 1010.4mb 71f 71f
5:00  -   -   -  18 25 mph 1010.3mb 71f 71f
4:50 3ft 12s 4s 18 22 mph 1010.3mb 71f 71f
4:40  -   -   -  16 20 mph 1010.3mb 71f 71f
4:30  -   -   -  18 20 mph 1010.3mb 71f 71f
4:20  -   -   -  16 22 mph 1010.4mb 71f 71f
4:10  -   -   -  18 25 mph 1010.3mb 71f 71f
4:00  -   -   -  16 20 mph 1010.3mb 71f 71f
3:50 3ft 12s 4s 16 20 mph 1010.3mb 71f 71f
3:40 3ft  -  4s 16 20 mph 1010.5mb 71f 71f
3:30  -   -   -  16 20 mph 1010.4mb 71f 71f
3:20  -   -   -  18 22 mph 1010.5mb 71f 71f
3:10  -   -   -  20 22 mph 1010.5mb 71f 71f
3:00  -   -   -  18 22 mph 1010.8mb 71f 71f
2:50 2.5ft 13s 5s 18 25 mph 1010.8mb 71f 71f
2:40 2.5ft  -  5s 16 20 mph 1010.8mb 71f 71f
2:30  -   -   -  13 16 mph 1010.5mb 71f 71f
2:20  -   -   -  13 16 mph 1010.5mb 71f 71f
2:10  -   -   -  11 16 mph 1010.6mb 71f 71f
2:00  -   -   -  11 16 mph 1010.8mb 71f 71f
1:50 2.5ft 12s 5s 13 16 mph 1010.8mb 71f 71f
1:40  -   -   -  11 13 mph 1010.9mb 71f 71f
1:30  -   -   -  11 16 mph 1010.9mb - -
1:20  -   -   -  13 16 mph 1011mb 71f 71f
1:10  -   -   -  13 18 mph 1011.1mb 71f 71f
1:00  -   -   -  13 16 mph 1011.1mb 71f 71f
12:50 2.5ft 10s 5s 13 16 mph 1011.1mb 71f 71f
12:40 2.5ft  -  5s 11 16 mph 1011.4mb 71f 71f
12:30  -   -   -  13 16 mph 1011.6mb 71f 71f
12:20  -   -   -  13 16 mph 1011.6mb 71f 71f
12:10  -   -   -  13 16 mph 1011.8mb 71f 71f
12:00  -   -   -  11 13 mph 1012mb 71f 71f
11:50 2.5ft 10s 4s 11 13 mph 1012.1mb 71f 71f
11:40  -   -   -  11 13 mph 1012.3mb 71f 71f
11:30  -   -   -  11
mph
1012.5mb 71f 71f
11:20  -   -   -  11 13 mph 1012.6mb 71f 71f
11:10  -   -   -  11 16 mph 1013mb 71f 71f
11:00  -   -   -  11 13 mph 1013mb 71f 71f
10:50 2.5ft 8s 4s 11 13 mph 1013.1mb 71f 71f
10:40 2.5ft  -  4s 9 13 mph 1013.1mb 71f 71f
10:30  -   -   -  11 13 mph 1013.3mb 71f 71f
10:20  -   -   -  11 16 mph 1013.3mb 71f 71f
10:10  -   -   -  11 13 mph 1013.3mb 71f 71f
10:00  -   -   -  9 13 mph 1013.3mb 71f 72f
9:50 2.5ft 10s 4s 11 16 mph 1013.3mb 71f 71f
9:40 2.5ft  -  4s 11 13 mph 1013.3mb 71f 72f
9:30  -   -   -  11 13 mph 1013.3mb 71f 72f
9:20  -   -   -  11 13 mph 1013mb 71f 72f
9:10  -   -   -  11 16 mph 1013.3mb 71f 72f
9:00  -   -   -  13 16 mph 1013.4mb 71f 72f
8:50 2.5ft 9s 4s 11 18 mph 1013mb 71f 72f
8:40 2.5ft  -  4s 11 16 mph 1013.3mb 71f 72f
8:30  -   -   -  11 16 mph 1013mb 71f 71f
8:20  -   -   -  11 16 mph 1013mb - -
8:10  -   -   -  13 16 mph 1013.1mb 71f 72f
8:00  -   -   -  13 16 mph 1012.8mb 71f 72f
7:50 2.5ft 9s 4s 11 16 mph 1012.6mb 71f 72f
7:40  -   -   -  11 16 mph 1012.5mb 71f 72f
7:30  -   -   -  11 13 mph 1012.3mb 71f 72f
7:20  -   -   -  11 13 mph 1012.4mb 71f 72f
7:10  -   -   -  11 13 mph 1012.1mb 71f 72f
7:00  -   -   -  11 13 mph 1011.9mb 71f 72f
6:50 2.5ft 9s 5s 11 13 mph 1012mb 71f 72f
6:40 2.5ft  -  5s 11 13 mph 1012mb 71f 72f
6:30  -   -   -  11 13 mph 1012.1mb 71f 72f
6:20  -   -   -  11 13 mph 1012.5mb 71f 72f
6:10  -   -   -  11 16 mph 1012mb 71f 71f
6:00  -   -   -  11 13 mph 1012.3mb 71f 71f
5:50 2.5ft 9s 5s 9 13 mph 1012.4mb 71f 70f
5:40 2.5ft  -  5s 11 13 mph 1012.4mb 71f 70f
5:30  -   -   -  11 13 mph 1012.5mb 71f 70f
5:20  -   -   -  11 13 mph 1012.6mb 71f 70f
5:10  -   -   -  11 13 mph 1012.5mb 71f 69f
5:00  -   -   -  13
mph
1012.6mb 71f 69f
4:50 2.5ft 9s 5s 11 16 mph 1012.8mb 71f 69f
4:40 2.5ft  -  5s 11 16 mph 1012.6mb 71f 69f
4:30  -   -   -  11 13 mph 1012.8mb 71f 69f
4:20  -   -   -  11 13 mph 1013mb 71f 69f
4:10  -   -   -  11 13 mph 1013.3mb 71f 69f
4:00  -   -   -  11 16 mph 1013.3mb 71f 68f
3:50 2.5ft 10s 5s 11 13 mph 1013.5mb 71f 68f
3:40 2.5ft  -  5s 11 13 mph 1013.6mb 71f 68f
3:30  -   -   -  11 13 mph 1013.8mb 71f 68f
3:20  -   -   -  11 13 mph 1014mb 71f 68f
3:10  -   -   -  9 13 mph 1014.1mb 71f 68f
3:00  -   -   -  9 13 mph 1014.4mb 71f 68f
2:50 2.5ft 10s 5s 11 13 mph 1014.5mb 71f 67f
2:40  -   -   -  9 13 mph 1014.5mb - 67f
2:30  -   -   -  11 13 mph 1014.5mb 71f 67f
2:20  -   -   -  11 13 mph 1014.5mb 71f 67f
2:10  -   -   -  9 11 mph 1014.5mb 71f 67f
2:00  -   -   -  9 11 mph 1014.6mb 71f 67f
1:50 2.5ft 10s 5s 7 11 mph 1014.6mb 71f 67f
1:40  -   -   -  9 11 mph 1014.8mb 71f 67f
1:30  -   -   -  9 11 mph 1014.5mb 71f 67f
1:20  -   -   -  9 11 mph 1014.4mb 71f 67f
1:10  -   -   -  9 13 mph 1014.1mb 71f 67f
1:00  -   -   -  9 13 mph 1014.3mb 71f 66f
12:50 2.5ft 10s 5s 9 13 mph 1014.4mb 71f 66f
12:40 2.5ft  -  5s 9 13 mph 1014.5mb 71f 66f
12:30  -   -   -  9 11 mph 1014.6mb 71f 66f
12:20  -   -   -  9 11 mph 1014.5mb 71f 66f
12:10  -   -   -  9 11 mph 1014.9mb 71f 66f
12:00  -   -   -  11 13 mph 1015mb 71f 66f
jue 01/19 11:50 2.5ft 10s 5s 9 13 mph 1014.9mb 71f 66f
11:40 2.5ft  -  5s 9 13 mph 1015.4mb 71f 65f
11:30  -   -   -  9 11 mph 1015.5mb 70f 65f
11:20  -   -   -  9 11 mph 1015.4mb 70f 65f
11:10  -   -   -  11 13 mph 1015.4mb 70f 65f
11:00  -   -   -  11 13 mph 1015.1mb 70f 65f
10:50 2.5ft 8s 5s 11 13 mph 1015.3mb 70f 65f
10:40 2.5ft  -  5s 11 16 mph 1015.1mb 70f 65f
10:30  -   -   -  11 13 mph 1015.3mb 70f 64f
10:20  -   -   -  11 13 mph 1015.1mb 70f 64f
10:10  -   -   -  11 16 mph 1015.3mb 70f 64f
10:00  -   -   -  11 16 mph 1015.1mb 70f 64f
9:50 2.5ft 10s 5s 11 16 mph 1015.3mb 70f 64f
9:40 2.5ft  -  5s 11 13 mph 1015.5mb 70f 64f
9:30  -   -   -  11 13 mph 1015.6mb - 64f
9:20  -   -   -  9 11 mph 1016mb 70f 64f
9:10  -   -   -  9 13 mph 1016.3mb 70f 64f
9:00  -   -   -  9 11 mph 1016.3mb 70f 64f
8:50 2.5ft 10s 5s 9 13 mph 1016.3mb 70f 64f
8:40  -   -   -  9 13 mph 1016.1mb 70f 64f
8:30  -   -   -  11 13 mph 1016mb 70f 64f
8:20  -   -   -  11 16 mph 1015.8mb 70f 63f
8:10  -   -   -  9 13 mph 1016.1mb 70f 63f
8:00  -   -   -  11 16 mph 1016mb 70f 63f
7:50 3ft 10s 5s 11 13 mph 1016.1mb 70f 63f
7:40  -   -   -  11 13 mph 1016.3mb 70f 63f
7:30  -   -   -  11 13 mph 1016.1mb 71f 63f
7:20  -   -   -  11 13 mph 1016.3mb 71f 63f
7:10  -   -   -  11 13 mph 1016.3mb 71f 63f
7:00  -   -   -  9 13 mph 1016.5mb 71f 63f
6:50 3ft 9s 5s 11 13 mph 1016.5mb 71f 63f
6:40  -   -   -  11 16 mph 1016.3mb 71f 62f
6:30  -   -   -  11 13 mph 1016.5mb 71f 62f
6:20  -   -   -  11 13 mph 1016.3mb 71f 62f
6:10  -   -   -  11 13 mph 1016.4mb 71f 62f
6:00  -   -   -  11 13 mph 1016.3mb - -
5:50 3ft 11s 5s 11 13 mph 1016.4mb 71f 62f
5:40  -   -   -  9 13 mph 1016.4mb 71f 62f
5:30  -   -   -  11 13 mph 1016.3mb 71f 62f
5:20  -   -   -  11 16 mph 1016.3mb 71f 62f
5:10  -   -   -  11 13 mph 1016.3mb 71f 62f
5:00  -   -   -  9 13 mph 1016.1mb 71f 62f
4:50 3.5ft 11s 5s 9 13 mph 1016mb 71f 62f
4:40  -   -   -  9 13 mph 1016mb 71f 62f
4:30  -   -   -  9 13 mph 1016mb 71f 62f
4:20  -   -   -  9 11 mph 1016mb 71f 62f
4:10  -   -   -  9 13 mph 1016mb 71f 62f
4:00  -   -   -  9 13 mph 1016mb 71f 62f
3:50 3.5ft 9s 5s 9 13 mph 1016mb 71f 62f
3:40  -   -   -  11 16 mph 1016mb 71f 62f
3:30  -   -   -  11 13 mph 1016mb 71f 62f
3:20  -   -   -  11 13 mph 1016mb 71f 62f
3:10  -   -   -  11 13 mph 1016mb 71f 62f
3:00  -   -   -  9 13 mph 1016mb 71f 62f
2:50 3.5ft 10s 5s 9 13 mph 1016mb 71f 62f
2:40 3.5ft  -  5s 9 13 mph 1016mb 71f 62f
2:30  -   -   -  9 13 mph 1016.1mb 71f 61f
2:20  -   -   -  9 13 mph 1016.3mb 71f 62f
2:10  -   -   -  11 13 mph 1016.5mb 71f 61f
2:00  -   -   -  11 13 mph 1016.6mb 71f 61f
1:50 3.5ft 10s 5s 11 16 mph 1016.6mb 71f 61f
1:40 3.5ft  -  5s 11 13 mph 1016.8mb 71f 61f
1:30  -   -   -  11 13 mph 1016.8mb 71f 61f
1:20  -   -   -  11 13 mph 1017mb 71f 61f
1:10  -   -   -  11 13 mph 1017mb 71f 61f
1:00  -   -   -  11 16 mph 1017mb 71f 61f
12:50 4ft 10s 5s 11 16 mph 1017.3mb 71f 61f
12:40 4ft  -  5s 11 16 mph 1017.3mb 71f 61f
12:30  -   -   -  11 16 mph 1017mb 71f 61f
12:20  -   -   -  11 18 mph 1017.5mb 71f 61f
12:10  -   -   -  11 16 mph 1017.6mb 71f 62f
12:00  -   -   -  11 13 mph 1017.8mb 71f 62f
11:50 3.5ft 9s 5s 11 16 mph 1018.1mb 71f 62f
11:40  -   -   -  13 16 mph 1018.1mb 71f 61f
11:30  -   -   -  13 18 mph 1018.1mb 71f 62f
11:20  -   -   -  13 18 mph 1018.1mb 71f 62f
11:10  -   -   -  13 18 mph 1018.3mb 71f 62f
11:00  -   -   -  13 18 mph 1018.4mb 71f 62f
10:50 3.5ft 10s 5s 16 18 mph 1018.5mb 71f 62f
10:40 3.5ft  -  5s 16 18 mph 1018.6mb 71f 62f
10:30  -   -   -  16 20 mph 1018.6mb 71f 62f
10:20  -   -   -  13 18 mph 1018.9mb 71f 62f
10:10  -   -   -  16 20 mph 1019mb 71f 62f
10:00  -   -   -  13 18 mph 1019mb 71f 62f
9:50 4ft 9s 5s 13 18 mph 1018.9mb 71f 62f
9:40 4ft  -  5s 13 18 mph 1018.8mb 71f 62f
9:30  -   -   -  13 16 mph 1018.5mb 70f 62f
9:20  -   -   -  13 18 mph 1018.5mb 70f 62f
9:10  -   -   -  13 18 mph 1018.4mb 70f 62f
9:00  -   -   -  13 18 mph 1018.1mb 70f 62f
8:50 4ft 9s 5s 13 18 mph 1018.4mb 70f 63f
8:40  -   -   -  13 16 mph 1018.1mb 70f 62f
8:30  -   -   -  13 16 mph 1018.1mb 70f 62f
8:20  -   -   -  11 16 mph 1018mb 70f 62f
8:10  -   -   -  11 16 mph 1018mb - -
8:00  -   -   -  11 16 mph 1017.9mb 70f 63f
7:50 4ft 6s 5s 11 13 mph 1017.6mb 70f 63f
7:40 4ft  -  5s 11 16 mph 1017.5mb 70f 62f
7:30  -   -   -  11 16 mph 1017.5mb 70f 62f
7:20  -   -   -  11 13 mph 1017.5mb 70f 62f
7:10  -   -   -  9 13 mph 1017.5mb 70f 62f
7:00  -   -   -  9 11 mph 1017.5mb 70f 62f
6:50 4ft 7s 5s 9 11 mph 1017.4mb 70f 62f
6:40 4ft  -  5s 9 13 mph 1017.1mb 70f 62f
6:30  -   -   -  9 11 mph 1017mb 70f 63f
6:20  -   -   -  9 13 mph 1017mb 70f 63f
6:10  -   -   -  9 11 mph 1017.1mb 70f 63f
6:00  -   -   -  9 11 mph 1017.1mb 70f 63f
5:50 4ft 7s 5s 9 13 mph 1017.1mb 70f 63f
5:40 4ft  -  5s 9 11 mph 1017mb 70f 63f
5:30  -   -   -  9 13 mph 1017mb 70f 63f
5:20  -   -   -  9 13 mph 1016.9mb 70f 63f
5:10  -   -   -  9 13 mph 1016.5mb 70f 63f
5:00  -   -   -  9 13 mph 1016.5mb 70f 63f
4:50 4.5ft 6s 5s 9 13 mph 1016.5mb 71f 63f
4:40 4.5ft  -  5s 9 13 mph 1016.5mb 71f 63f
4:30  -   -   -  9 13 mph 1016.5mb 71f 63f
4:20  -   -   -  9 13 mph 1016.4mb 71f 63f
4:10  -   -   -  9 11 mph 1016.5mb 71f 63f
4:00  -   -   -  7 11 mph 1016.5mb 71f 64f
3:50 4.5ft 6s 5s 7 11 mph 1016.8mb 71f 64f
3:40 4.5ft  -  5s 9 13 mph 1016.6mb 71f 64f
3:30  -   -   -  9 13 mph 1016.4mb - 64f
3:20  -   -   -  9 11 mph 1016.5mb 71f 64f
3:10  -   -   -  9 13 mph 1016.5mb 71f 64f
3:00  -   -   -  9 13 mph 1016.6mb 71f 64f
2:50 4.5ft 7s 5s 11 18 mph 1016.3mb 71f 64f
2:40 4.5ft  -  5s 13 18 mph 1016.5mb 71f 64f
2:30  -   -   -  13 16 mph 1016.4mb 71f 64f
2:20  -   -   -  11 18 mph 1016.4mb 71f 64f
2:10  -   -   -  11 18 mph 1016.5mb 71f 64f
2:00  -   -   -  13 18 mph 1016.5mb 71f 64f
1:50 4ft  -  5s 11 16 mph 1016.4mb 71f 64f
1:44 4ft 7s 5s  -  mph - - -
1:40  -   -   -  13 18 mph 1016.5mb 71f 64f
1:30  -   -   -  13 18 mph 1016.1mb 71f 64f
1:20  -   -   -  13 18 mph 1016mb 71f 64f
1:10  -   -   -  13 18 mph 1016.3mb 71f 64f
1:00  -   -   -  13 18 mph 1016.3mb 71f 64f
12:50 4ft 7s 5s 13 18 mph 1016.4mb 71f 64f
12:40 4ft  -  5s 13 20 mph 1016.5mb 71f 64f
12:30  -   -   -  13 18 mph 1016.5mb 71f 64f
12:20  -   -   -  13 18 mph 1016.5mb 71f 64f
12:10  -   -   -  16 20 mph 1016.5mb 71f 64f
12:00  -   -   -  16 20 mph 1016.6mb 71f 64f
mié 01/18 11:50 4ft 6s 4s 16 20 mph 1016.9mb 71f 64f
11:40 4ft  -  4s 16 20 mph 1017mb 71f 64f
11:30  -   -   -  16 20 mph 1016.9mb 71f 64f
11:20  -   -   -  16 22 mph 1016.6mb 71f 64f
11:10  -   -   -  16 20 mph 1016.8mb 71f 65f
11:00  -   -   -  18 22 mph 1017mb 71f 65f
10:50 4ft 6s 5s 18 25 mph 1016.9mb 71f 65f
10:40 4ft  -  5s 16 22 mph 1016.8mb 71f 65f
10:30  -   -   -  16 22 mph 1016.8mb 71f 65f
10:20  -   -   -  18 22 mph 1016.6mb 71f 65f
10:10  -   -   -  18 22 mph 1016.8mb 71f 65f
10:00  -   -   -  18 22 mph 1016.5mb 71f 65f
9:50 3.5ft 6s 4s 18 25 mph 1016.5mb 71f 66f
9:40 3.5ft  -  4s 20 25 mph 1016.4mb 71f 66f
9:30  -   -   -  20 25 mph 1016.3mb 71f 66f
9:20  -   -   -  20 27 mph 1016.3mb 71f 67f
9:10  -   -   -  18 25 mph 1016.3mb 71f 67f
9:00  -   -   -  20 25 mph 1016.3mb 71f 68f
8:50 4ft 6s 5s 18 25 mph 1016.3mb 72f 68f
8:40  -   -   -  20 25 mph 1016mb 72f 68f
8:30  -   -   -  18 25 mph - 72f 68f
8:20  -   -   -  16 20 mph 1016.1mb - 67f
8:10  -   -   -  13 18 mph 1016.1mb 72f 67f
8:00  -   -   -  16 20 mph 1016mb 72f 68f
7:50 4.5ft 6s 5s 16 22 mph 1016mb 72f 69f
7:40 4.5ft  -  5s 16 18 mph 1015.9mb 72f 70f
7:30  -   -   -  13 18 mph 1015.8mb 72f 69f
7:20  -   -   -  11 16 mph 1015.8mb 72f 69f
7:10  -   -   -  11 13 mph 1015.5mb 72f 69f
7:00  -   -   -  11 16 mph 1015.4mb 72f 69f
6:50 4.5ft 6s 5s 11 16 mph 1015.4mb 72f 69f
6:40 4.5ft  -  5s 13 16 mph 1015.1mb 72f 69f
6:30  -   -   -  11 18 mph 1015mb 72f 69f
6:20  -   -   -  13 16 mph 1015mb 72f 69f
6:10  -   -   -  13 16 mph 1014.8mb 72f 69f
6:00  -   -   -  13 16 mph 1014.6mb - -
5:50 5ft 6s 5s 13 16 mph 1014.5mb 72f 69f
5:40 5ft  -  5s 13 18 mph 1014.5mb 72f 69f
5:30  -   -   -  13 16 mph 1014.3mb 72f 69f
5:20  -   -   -  13 18 mph 1014.3mb 72f 69f
5:10  -   -   -  16 20 mph 1014mb 72f 69f
5:00  -   -   -  18 22 mph 1013.9mb - -
4:50  -   -   -  18 22 mph 1013.6mb 72f 69f
4:40  -   -   -  18 22 mph 1013.5mb 72f 69f
4:30  -   -   -  20 25 mph 1013.6mb 72f 69f
4:20  -   -   -  20 25 mph 1013.5mb 72f 69f
4:10  -   -   -  22 25 mph 1013.5mb 72f 69f
4:00  -   -   -  22 25 mph 1013.4mb 72f 69f
3:50 5ft 6s 4s 22 25 mph 1013.3mb 72f 69f
3:40 5ft  -  4s 22 27 mph 1013.4mb - 69f
3:30  -   -   -  25 27 mph 1013.4mb 72f 69f
3:20  -   -   -  25 29 mph 1013.5mb 72f 69f
3:10  -   -   -  25 31 mph 1013.5mb 72f 69f
3:00  -   -   -  25 29 mph 1013.4mb 72f 69f
2:50 5ft 6s 4s 25 31 mph 1013.1mb 72f 69f
2:40 5ft  -  4s 25 31 mph 1013.1mb 72f 69f
2:30  -   -   -  25 29 mph 1012.8mb - -
2:20  -   -   -  25 31 mph 1012.6mb 72f 69f
2:10  -   -   -  27 34 mph 1013mb 72f 69f
2:00  -   -   -  25 31 mph 1013mb 72f 69f
1:50 5ft 6s 4s 25 31 mph 1013.4mb 72f 69f
1:40  -   -   -  25 29 mph 1013.8mb 72f 69f
1:30  -   -   -  25 31 mph 1014mb 72f 69f
1:20  -   -   -  25 31 mph 1014.1mb 72f 69f
1:10  -   -   -  25 29 mph 1014mb 71f 69f
1:00  -   -   -  25 31 mph 1014mb 71f 69f
12:50 5.5ft 6s 4s 25 29 mph 1013.9mb 71f 69f
12:40  -   -   -  25 29 mph 1014mb 71f 69f
12:30  -   -   -  25 31 mph 1014.4mb 71f 69f
12:20  -   -   -  25 31 mph 1014.3mb 71f 69f
12:10  -   -   -  25 29 mph 1014.4mb 71f 69f
12:00  -   -   -  27 34 mph 1014.6mb 71f 69f
11:50 5.5ft 6s 5s 27 31 mph 1015mb 71f 69f
11:40 5.5ft  -  5s 27 31 mph 1015.3mb 71f 69f
11:30  -   -   -  27 31 mph 1015.8mb 71f 69f
11:20  -   -   -  27 34 mph 1016mb 71f 69f
11:10  -   -   -  27 31 mph 1016.3mb 71f 69f
11:00  -   -   -  27 34 mph 1016.5mb 71f 69f
10:50 5.5ft 6s 4s 25 31 mph 1017mb 71f 69f
10:40 5.5ft  -  4s 27 36 mph 1017.4mb 71f 69f
10:30  -   -   -  27 31 mph 1017.4mb 71f 69f